createdAt,value
2022-11-29T00:00:09.365Z,22.80
2022-11-29T00:03:03.191Z,25.30
2022-11-29T00:05:35.844Z,26.00
2022-11-29T00:08:05.964Z,27.40
2022-11-29T00:10:41.172Z,27.60
2022-11-29T00:13:10.936Z,24.80
2022-11-29T00:15:40.686Z,20.20
2022-11-29T00:18:10.425Z,21.80
2022-11-29T00:20:40.673Z,22.30
2022-11-29T00:23:10.294Z,22.50
2022-11-29T00:25:40.177Z,25.60
2022-11-29T00:28:09.830Z,27.90
2022-11-29T00:30:39.892Z,25.80
2022-11-29T00:33:09.574Z,26.90
2022-11-29T00:35:39.299Z,28.00
2022-11-29T00:38:08.716Z,28.40
2022-11-29T00:40:38.477Z,26.40
2022-11-29T00:43:08.425Z,24.60
2022-11-29T00:45:37.558Z,24.20
2022-11-29T00:48:07.412Z,24.90
2022-11-29T00:50:37.224Z,25.00
2022-11-29T00:53:07.124Z,24.30
2022-11-29T00:55:36.912Z,23.70
2022-11-29T00:58:05.455Z,21.40
2022-11-29T01:00:34.755Z,24.10
2022-11-29T01:03:04.811Z,23.30
2022-11-29T01:05:34.954Z,23.60
2022-11-29T01:08:03.863Z,24.30
2022-11-29T01:10:33.007Z,21.40
2022-11-29T01:13:03.222Z,21.10
2022-11-29T01:15:33.627Z,21.80
2022-11-29T01:18:03.423Z,22.80
2022-11-29T01:20:33.161Z,24.30
2022-11-29T01:23:03.209Z,24.30
2022-11-29T01:25:32.966Z,24.10
2022-11-29T01:28:02.616Z,23.10
2022-11-29T01:30:32.612Z,24.20
2022-11-29T01:33:02.722Z,23.50
2022-11-29T01:35:32.407Z,21.30
2022-11-29T01:38:00.913Z,22.00
2022-11-29T01:40:30.637Z,21.70
2022-11-29T01:43:00.328Z,23.00
2022-11-29T01:45:29.637Z,22.90
2022-11-29T01:47:59.345Z,23.60
2022-11-29T01:50:29.075Z,24.70
2022-11-29T01:52:59.313Z,23.80
2022-11-29T01:55:31.772Z,23.80
2022-11-29T01:58:01.842Z,24.00
2022-11-29T02:00:31.705Z,21.60
2022-11-29T02:03:10.652Z,20.30
2022-11-29T02:05:49.428Z,18.60
2022-11-29T02:08:31.005Z,18.30
2022-11-29T02:11:14.565Z,18.60
2022-11-29T02:14:00.252Z,17.60
2022-11-29T02:16:58.034Z,23.40
2022-11-29T02:19:56.030Z,18.40
2022-11-29T02:25:38.451Z,30.60
2022-11-29T02:30:56.844Z,20.00
2022-11-29T02:34:13.353Z,21.10
2022-11-29T02:37:13.871Z,18.80
2022-11-29T02:40:14.129Z,17.80
2022-11-29T02:43:13.193Z,17.20
2022-11-29T02:46:04.117Z,18.40
2022-11-29T02:49:08.574Z,21.10
2022-11-29T02:52:08.719Z,19.80
2022-11-29T02:54:49.775Z,19.60
2022-11-29T02:58:10.773Z,19.00
2022-11-29T03:00:52.726Z,18.20
2022-11-29T03:03:29.023Z,20.60
2022-11-29T03:06:41.002Z,18.00
2022-11-29T03:09:11.640Z,18.50
2022-11-29T03:11:51.195Z,19.40
2022-11-29T03:14:32.051Z,17.50
2022-11-29T03:17:09.907Z,22.40
2022-11-29T03:19:52.852Z,20.80
2022-11-29T03:22:59.798Z,20.30
2022-11-29T03:25:52.302Z,20.90
2022-11-29T03:28:29.853Z,17.70
2022-11-29T03:33:56.916Z,18.70
2022-11-29T03:36:52.029Z,19.00
2022-11-29T03:39:45.034Z,19.80
2022-11-29T03:42:29.725Z,18.00
2022-11-29T03:45:20.108Z,20.00
2022-11-29T03:47:57.399Z,19.10
2022-11-29T03:50:54.910Z,17.10
2022-11-29T03:53:50.515Z,17.00
2022-11-29T03:56:32.365Z,16.00
2022-11-29T03:59:15.169Z,17.10
2022-11-29T04:02:28.879Z,15.00
2022-11-29T04:05:26.896Z,14.80
2022-11-29T04:08:21.542Z,14.40
2022-11-29T04:11:09.471Z,16.90
2022-11-29T04:13:53.361Z,17.20
2022-11-29T04:16:32.454Z,17.70
2022-11-29T04:19:45.166Z,14.60
2022-11-29T04:22:42.964Z,16.80
2022-11-29T04:25:30.920Z,18.00
2022-11-29T04:28:18.967Z,16.70
2022-11-29T04:31:18.178Z,15.20
2022-11-29T04:34:26.012Z,16.60
2022-11-29T04:40:00.208Z,15.60
2022-11-29T04:42:51.815Z,16.40
2022-11-29T04:46:06.530Z,17.60
2022-11-29T04:48:51.292Z,18.10
2022-11-29T04:51:40.242Z,15.70
2022-11-29T04:54:35.889Z,14.40
2022-11-29T04:57:15.340Z,16.30
2022-11-29T05:00:16.039Z,21.80
2022-11-29T05:03:22.707Z,15.80
2022-11-29T05:06:05.231Z,19.80
2022-11-29T05:09:10.411Z,23.40
2022-11-29T05:12:28.629Z,21.30
2022-11-29T05:15:39.816Z,24.50
2022-11-29T05:18:54.654Z,25.40
2022-11-29T05:22:00.725Z,25.80
2022-11-29T05:24:42.636Z,30.60
2022-11-29T05:27:23.971Z,28.90
2022-11-29T05:30:08.480Z,32.10
2022-11-29T05:32:55.069Z,39.60
2022-11-29T05:35:53.842Z,35.80
2022-11-29T05:38:58.487Z,21.60
2022-11-29T05:41:57.227Z,19.10
2022-11-29T05:44:36.283Z,26.40
2022-11-29T05:47:10.449Z,16.40
2022-11-29T05:50:06.511Z,21.70
2022-11-29T05:52:47.595Z,26.70
2022-11-29T05:55:41.787Z,32.50
2022-11-29T05:58:38.677Z,38.60
2022-11-29T06:01:19.851Z,26.50
2022-11-29T06:04:22.752Z,22.80
2022-11-29T06:07:12.484Z,37.90
2022-11-29T06:09:51.921Z,6.90
2022-11-29T06:12:23.856Z,25.70
2022-11-29T06:15:20.223Z,31.80
2022-11-29T06:18:31.971Z,33.40
2022-11-29T06:21:24.951Z,37.10
2022-11-29T06:24:01.757Z,38.70
2022-11-29T06:26:48.779Z,39.50
2022-11-29T06:29:40.517Z,40.90
2022-11-29T06:32:41.142Z,36.00
2022-11-29T06:35:47.212Z,34.80
2022-11-29T06:38:23.542Z,19.30
2022-11-29T06:41:00.215Z,33.60
2022-11-29T06:43:33.976Z,30.90
2022-11-29T06:46:16.558Z,33.80
2022-11-29T06:49:09.180Z,34.20
2022-11-29T06:51:52.345Z,41.10
2022-11-29T06:54:38.246Z,48.00
2022-11-29T06:57:18.425Z,44.40
2022-11-29T07:00:12.035Z,43.80
2022-11-29T07:03:11.557Z,42.70
2022-11-29T07:05:41.397Z,48.20
2022-11-29T07:08:23.598Z,51.20
2022-11-29T07:10:55.883Z,43.10
2022-11-29T07:13:26.021Z,39.00
2022-11-29T07:16:12.471Z,37.60
2022-11-29T07:19:17.190Z,35.40
2022-11-29T07:22:31.503Z,34.80
2022-11-29T07:25:29.710Z,31.90
2022-11-29T07:28:27.278Z,31.60
2022-11-29T07:31:17.937Z,31.50
2022-11-29T07:34:34.186Z,31.20
2022-11-29T07:37:36.552Z,30.00
2022-11-29T07:40:23.709Z,29.00
2022-11-29T07:43:08.274Z,28.20
2022-11-29T07:45:39.726Z,31.40
2022-11-29T07:48:13.394Z,23.60
2022-11-29T07:50:42.049Z,20.20
2022-11-29T07:53:20.635Z,19.30
2022-11-29T07:55:50.690Z,17.80
2022-11-29T07:58:19.610Z,19.00
2022-11-29T08:00:49.702Z,19.70
2022-11-29T08:03:19.390Z,18.60
2022-11-29T08:05:48.629Z,18.10
2022-11-29T08:08:17.980Z,19.50
2022-11-29T08:10:47.567Z,19.40
2022-11-29T08:13:21.143Z,20.20
2022-11-29T08:15:50.841Z,20.40
2022-11-29T08:18:19.730Z,20.30
2022-11-29T08:20:48.231Z,21.40
2022-11-29T08:23:16.695Z,22.90
2022-11-29T08:25:46.380Z,23.60
2022-11-29T08:28:16.512Z,21.70
2022-11-29T08:30:46.722Z,22.60
2022-11-29T08:33:16.522Z,23.20
2022-11-29T08:35:46.411Z,22.40
2022-11-29T08:38:15.722Z,22.30
2022-11-29T08:40:45.317Z,22.40
2022-11-29T08:43:15.353Z,23.60
2022-11-29T08:45:45.362Z,23.20
2022-11-29T08:48:15.060Z,22.80
2022-11-29T08:50:44.920Z,23.90
2022-11-29T08:53:31.995Z,23.50
2022-11-29T08:56:08.485Z,24.30
2022-11-29T08:58:51.727Z,25.30
2022-11-29T09:01:22.290Z,26.30
2022-11-29T09:04:00.567Z,27.60
2022-11-29T09:06:34.711Z,27.30
2022-11-29T09:09:03.885Z,26.70
2022-11-29T09:11:35.648Z,28.80
2022-11-29T09:14:08.001Z,31.20
2022-11-29T09:16:38.902Z,34.30
2022-11-29T09:19:08.970Z,33.20
2022-11-29T09:21:38.696Z,36.50
2022-11-29T09:24:08.301Z,38.00
2022-11-29T09:26:38.485Z,37.00
2022-11-29T09:29:09.445Z,36.10
2022-11-29T09:31:39.492Z,37.20
2022-11-29T09:34:14.126Z,36.90
2022-11-29T09:36:44.599Z,36.40
2022-11-29T09:39:13.166Z,34.80
2022-11-29T09:42:19.991Z,34.90
2022-11-29T09:45:04.362Z,31.10
2022-11-29T09:47:56.821Z,32.60
2022-11-29T09:50:43.601Z,30.10
2022-11-29T09:53:47.526Z,28.30
2022-11-29T09:56:39.028Z,26.10
2022-11-29T09:59:25.213Z,26.00
2022-11-29T10:02:15.938Z,26.60
2022-11-29T10:04:56.515Z,25.40
2022-11-29T10:07:52.128Z,22.20
2022-11-29T10:10:31.365Z,23.60
2022-11-29T10:13:30.122Z,22.00
2022-11-29T10:16:11.248Z,21.20
2022-11-29T10:19:00.752Z,15.30
2022-11-29T10:21:34.766Z,14.10
2022-11-29T10:24:13.762Z,13.30
2022-11-29T10:26:43.875Z,14.30
2022-11-29T10:29:17.199Z,11.40
2022-11-29T10:31:49.783Z,11.10
2022-11-29T10:34:21.725Z,10.40
2022-11-29T10:37:03.017Z,9.60
2022-11-29T10:39:47.466Z,9.90
2022-11-29T10:42:38.965Z,10.50
2022-11-29T10:45:30.304Z,9.50
2022-11-29T10:48:05.604Z,9.50
2022-11-29T10:50:37.889Z,8.60
2022-11-29T10:53:13.825Z,8.50
2022-11-29T10:56:01.622Z,8.80
2022-11-29T10:58:31.419Z,9.10
2022-11-29T11:01:08.020Z,8.30
2022-11-29T11:03:41.736Z,8.80
2022-11-29T11:06:22.462Z,9.20
2022-11-29T11:09:13.118Z,9.30
2022-11-29T11:11:54.620Z,10.50
2022-11-29T11:14:26.970Z,11.60
2022-11-29T11:17:22.258Z,11.50
2022-11-29T11:20:22.592Z,11.30
2022-11-29T11:23:30.202Z,12.20
2022-11-29T11:26:07.085Z,12.30
2022-11-29T11:29:02.002Z,11.20
2022-11-29T11:31:41.244Z,11.20
2022-11-29T11:34:38.601Z,11.10
2022-11-29T11:37:18.051Z,11.30
2022-11-29T11:39:51.740Z,11.60
2022-11-29T11:42:38.850Z,11.80
2022-11-29T11:45:14.184Z,12.40
2022-11-29T11:47:51.841Z,12.30
2022-11-29T11:50:31.787Z,11.40
2022-11-29T11:53:20.225Z,10.40
2022-11-29T11:56:03.269Z,8.70
2022-11-29T11:59:09.578Z,10.70
2022-11-29T12:01:39.841Z,10.00
2022-11-29T12:04:21.811Z,9.90
2022-11-29T12:07:00.841Z,11.30
2022-11-29T12:09:54.019Z,11.00
2022-11-29T12:12:29.647Z,10.40
2022-11-29T12:15:02.084Z,10.40
2022-11-29T12:17:47.927Z,9.70
2022-11-29T12:20:31.290Z,11.80
2022-11-29T12:23:16.694Z,11.80
2022-11-29T12:26:41.110Z,13.10
2022-11-29T12:29:16.653Z,15.20
2022-11-29T12:31:49.494Z,14.60
2022-11-29T12:34:35.963Z,14.40
2022-11-29T12:37:27.162Z,14.20
2022-11-29T12:40:03.698Z,13.50
2022-11-29T12:42:56.127Z,14.20
2022-11-29T12:45:48.399Z,13.30
2022-11-29T12:48:37.107Z,14.00
2022-11-29T12:51:34.263Z,15.10
2022-11-29T12:54:13.204Z,13.20
2022-11-29T12:57:04.914Z,13.10
2022-11-29T13:00:24.475Z,14.20
2022-11-29T13:03:22.026Z,12.60
2022-11-29T13:06:07.925Z,13.30
2022-11-29T13:09:04.057Z,13.00
2022-11-29T13:11:43.382Z,12.80
2022-11-29T13:14:42.819Z,13.60
2022-11-29T13:17:28.653Z,14.70
2022-11-29T13:20:26.061Z,13.70
2022-11-29T13:23:14.570Z,13.10
2022-11-29T13:25:51.002Z,13.30
2022-11-29T13:28:28.823Z,13.10
2022-11-29T13:31:13.508Z,12.80
2022-11-29T13:33:56.401Z,13.00
2022-11-29T13:36:38.284Z,13.20
2022-11-29T13:39:36.482Z,13.30
2022-11-29T13:42:59.190Z,13.60
2022-11-29T13:46:22.092Z,12.70
2022-11-29T13:48:54.084Z,12.00
2022-11-29T13:51:38.206Z,13.80
2022-11-29T13:54:25.808Z,14.40
2022-11-29T13:57:09.520Z,15.30
2022-11-29T13:59:47.105Z,14.30
2022-11-29T14:02:35.822Z,13.00
2022-11-29T14:05:08.178Z,12.40
2022-11-29T14:08:18.028Z,14.50
2022-11-29T14:10:51.092Z,14.60
2022-11-29T14:13:34.694Z,15.20
2022-11-29T14:16:07.642Z,12.90
2022-11-29T14:18:43.836Z,15.40
2022-11-29T14:21:13.613Z,12.50
2022-11-29T14:23:44.644Z,12.60
2022-11-29T14:26:13.244Z,12.20
2022-11-29T14:28:42.712Z,11.50
2022-11-29T14:31:11.435Z,12.60
2022-11-29T14:34:26.230Z,13.10
2022-11-29T14:37:08.215Z,12.10
2022-11-29T14:39:53.276Z,12.40
2022-11-29T14:42:26.952Z,11.80
2022-11-29T14:45:01.791Z,12.10
2022-11-29T14:47:48.210Z,12.00
2022-11-29T14:50:40.096Z,10.50
2022-11-29T14:53:31.209Z,11.80
2022-11-29T14:56:32.076Z,12.40
2022-11-29T14:59:38.642Z,8.20
2022-11-29T15:02:19.014Z,13.60
2022-11-29T15:04:52.097Z,12.30
2022-11-29T15:07:32.164Z,11.80
2022-11-29T15:10:14.299Z,12.40
2022-11-29T15:12:43.308Z,12.30
2022-11-29T15:15:43.947Z,12.60
2022-11-29T15:18:35.757Z,15.80
2022-11-29T15:21:33.085Z,18.60
2022-11-29T15:24:15.321Z,16.90
2022-11-29T15:27:01.721Z,17.40
2022-11-29T15:29:33.156Z,14.50
2022-11-29T15:32:06.282Z,12.60
2022-11-29T15:34:43.756Z,13.30
2022-11-29T15:37:36.886Z,12.80
2022-11-29T15:40:21.750Z,12.20
2022-11-29T15:42:58.870Z,12.90
2022-11-29T15:45:39.092Z,13.40
2022-11-29T15:48:16.324Z,12.00
2022-11-29T15:51:11.577Z,11.90
2022-11-29T15:53:49.394Z,10.70
2022-11-29T15:56:38.839Z,29.50
2022-11-29T15:59:44.896Z,17.10
2022-11-29T16:02:28.219Z,30.10
2022-11-29T16:05:04.053Z,37.30
2022-11-29T16:07:35.487Z,40.10
2022-11-29T16:10:20.326Z,31.60
2022-11-29T16:13:01.042Z,20.30
2022-11-29T16:15:39.141Z,55.80
2022-11-29T16:18:17.704Z,21.80
2022-11-29T16:21:01.255Z,12.40
2022-11-29T16:23:40.682Z,48.30
2022-11-29T16:26:23.171Z,65.20
2022-11-29T16:28:58.226Z,44.00
2022-11-29T16:31:38.578Z,34.90
2022-11-29T16:34:14.486Z,18.80
2022-11-29T16:36:44.288Z,24.10
2022-11-29T16:39:24.316Z,17.50
2022-11-29T16:42:10.290Z,13.10
2022-11-29T16:44:47.274Z,27.60
2022-11-29T16:47:23.137Z,19.00
2022-11-29T16:50:15.324Z,16.00
2022-11-29T16:52:45.348Z,35.30
2022-11-29T16:55:17.348Z,28.90
2022-11-29T16:57:48.291Z,23.30
2022-11-29T17:00:30.949Z,32.20
2022-11-29T17:03:01.105Z,24.40
2022-11-29T17:05:31.448Z,25.10
2022-11-29T17:08:01.557Z,17.80
2022-11-29T17:10:32.970Z,24.60
2022-11-29T17:13:04.850Z,23.20
2022-11-29T17:15:35.056Z,26.00
2022-11-29T17:18:05.104Z,37.00
2022-11-29T17:20:35.212Z,42.90
2022-11-29T17:23:05.035Z,38.80
2022-11-29T17:25:35.197Z,39.30
2022-11-29T17:28:05.233Z,41.40
2022-11-29T17:30:34.963Z,51.00
2022-11-29T17:33:04.433Z,39.30
2022-11-29T17:35:35.979Z,38.20
2022-11-29T17:38:05.770Z,36.70
2022-11-29T17:40:34.383Z,41.80
2022-11-29T17:43:04.193Z,37.20
2022-11-29T17:45:34.351Z,33.50
2022-11-29T17:48:04.207Z,22.40
2022-11-29T17:50:34.298Z,15.10
2022-11-29T17:53:04.395Z,24.80
2022-11-29T17:55:34.462Z,30.20
2022-11-29T17:58:04.678Z,31.30
2022-11-29T18:00:34.795Z,37.00
2022-11-29T18:03:04.820Z,20.80
2022-11-29T18:05:35.046Z,15.80
2022-11-29T18:08:06.186Z,25.10
2022-11-29T18:10:36.736Z,38.40
2022-11-29T18:13:05.234Z,24.20
2022-11-29T18:15:35.131Z,24.10
2022-11-29T18:18:05.286Z,55.60
2022-11-29T18:20:35.263Z,65.60
2022-11-29T18:23:08.070Z,42.50
2022-11-29T18:25:39.791Z,36.00
2022-11-29T18:28:11.624Z,34.20
2022-11-29T18:30:41.414Z,33.90
2022-11-29T18:33:11.148Z,32.60
2022-11-29T18:35:39.647Z,19.40
2022-11-29T18:38:16.698Z,15.20
2022-11-29T18:40:47.381Z,25.40
2022-11-29T18:43:16.457Z,52.00
2022-11-29T18:45:46.770Z,45.40
2022-11-29T18:48:16.242Z,27.20
2022-11-29T18:50:46.201Z,44.60
2022-11-29T18:53:16.289Z,34.60
2022-11-29T18:55:46.318Z,35.60
2022-11-29T18:58:16.429Z,32.10
2022-11-29T19:00:45.721Z,38.20
2022-11-29T19:03:15.723Z,32.20
2022-11-29T19:05:54.649Z,29.60
2022-11-29T19:08:25.820Z,37.10
2022-11-29T19:10:55.710Z,34.40
2022-11-29T19:13:25.389Z,17.00
2022-11-29T19:15:56.289Z,16.80
2022-11-29T19:18:25.980Z,19.20
2022-11-29T19:21:04.682Z,24.60
2022-11-29T19:23:35.001Z,48.90
2022-11-29T19:26:09.076Z,43.50
2022-11-29T19:28:40.906Z,46.50
2022-11-29T19:31:12.503Z,51.90
2022-11-29T19:33:43.996Z,55.70
2022-11-29T19:36:19.634Z,72.80
2022-11-29T19:38:53.804Z,45.10
2022-11-29T19:41:29.491Z,24.70
2022-11-29T19:44:04.685Z,7.60
2022-11-29T19:46:40.490Z,26.80
2022-11-29T19:49:11.235Z,36.00
2022-11-29T19:51:41.242Z,46.80
2022-11-29T19:54:12.196Z,41.20
2022-11-29T19:56:42.513Z,45.10
2022-11-29T19:59:12.156Z,31.00
2022-11-29T20:01:43.021Z,17.10
2022-11-29T20:04:14.216Z,17.70
2022-11-29T20:06:44.740Z,19.50
2022-11-29T20:09:14.508Z,20.60
2022-11-29T20:11:44.248Z,21.80
2022-11-29T20:14:15.035Z,20.60
2022-11-29T20:16:43.955Z,28.70
2022-11-29T20:19:16.552Z,32.00
2022-11-29T20:21:49.143Z,30.40
2022-11-29T20:24:19.932Z,25.80
2022-11-29T20:26:49.983Z,30.60
2022-11-29T20:29:21.863Z,41.30
2022-11-29T20:31:51.600Z,28.40
2022-11-29T20:34:21.935Z,26.20
2022-11-29T20:37:35.108Z,22.00
2022-11-29T20:40:15.167Z,19.70
2022-11-29T20:42:58.885Z,24.00
2022-11-29T20:45:28.996Z,26.40
2022-11-29T20:48:13.447Z,26.10
2022-11-29T20:50:45.340Z,24.30
2022-11-29T20:53:16.730Z,30.00
2022-11-29T20:55:48.482Z,26.40
2022-11-29T20:58:19.747Z,25.90
2022-11-29T21:00:49.886Z,27.00
2022-11-29T21:03:19.975Z,28.90
2022-11-29T21:05:50.836Z,31.30
2022-11-29T21:08:24.695Z,34.00
2022-11-29T21:10:55.645Z,35.00
2022-11-29T21:13:25.658Z,39.00
2022-11-29T21:15:56.093Z,36.10
2022-11-29T21:18:30.697Z,31.00
2022-11-29T21:21:29.958Z,30.10
2022-11-29T21:24:07.015Z,31.50
2022-11-29T21:26:45.148Z,25.00
2022-11-29T21:31:47.515Z,18.80
2022-11-29T21:34:17.603Z,17.60
2022-11-29T21:36:59.214Z,20.60
2022-11-29T21:39:34.053Z,19.80
2022-11-29T21:42:03.910Z,22.60
2022-11-29T21:44:33.791Z,22.50
2022-11-29T21:47:03.490Z,24.80
2022-11-29T21:49:33.567Z,21.90
2022-11-29T21:52:03.650Z,26.90
2022-11-29T21:54:33.324Z,23.70
2022-11-29T21:57:02.613Z,31.00
2022-11-29T21:59:33.937Z,28.90
2022-11-29T22:02:02.551Z,26.80
2022-11-29T22:04:32.324Z,37.70
2022-11-29T22:07:02.034Z,35.40
2022-11-29T22:09:31.993Z,31.00
2022-11-29T22:12:14.615Z,31.70
2022-11-29T22:14:51.259Z,29.60
2022-11-29T22:17:21.268Z,30.30
2022-11-29T22:19:51.220Z,22.20
2022-11-29T22:22:21.086Z,22.70
2022-11-29T22:24:50.740Z,31.20
2022-11-29T22:27:21.328Z,30.90
2022-11-29T22:29:51.347Z,33.60
2022-11-29T22:32:21.099Z,30.70
2022-11-29T22:34:51.189Z,35.50
2022-11-29T22:37:20.768Z,33.20
2022-11-29T22:39:50.437Z,28.20
2022-11-29T22:42:19.073Z,25.40
2022-11-29T22:44:48.325Z,31.50
2022-11-29T22:47:20.197Z,31.80
2022-11-29T22:49:51.806Z,45.50
2022-11-29T22:52:22.369Z,40.90
2022-11-29T22:54:52.346Z,26.70
2022-11-29T22:57:22.051Z,26.50
2022-11-29T22:59:52.107Z,28.00
2022-11-29T23:02:21.854Z,26.50
2022-11-29T23:04:51.945Z,25.10
2022-11-29T23:07:22.014Z,21.40
2022-11-29T23:09:52.075Z,23.90
2022-11-29T23:12:21.108Z,31.90
2022-11-29T23:14:56.132Z,27.80
2022-11-29T23:17:28.027Z,22.50
2022-11-29T23:19:58.059Z,29.30
2022-11-29T23:22:28.042Z,25.80
2022-11-29T23:24:58.142Z,26.20
2022-11-29T23:27:27.600Z,24.60
2022-11-29T23:29:59.647Z,18.30
2022-11-29T23:32:30.542Z,16.50
2022-11-29T23:35:00.294Z,16.20
2022-11-29T23:37:30.230Z,16.10
2022-11-29T23:40:00.303Z,17.10
2022-11-29T23:42:30.274Z,20.30
2022-11-29T23:44:59.888Z,19.70
2022-11-29T23:47:29.684Z,17.80
2022-11-29T23:49:59.706Z,20.30
2022-11-29T23:52:29.777Z,19.10
2022-11-29T23:54:58.212Z,17.30
2022-11-29T23:57:31.272Z,17.40
